createdAt,value
2019-03-15T00:01:50.993Z,4.50
2019-03-15T00:04:21.585Z,4.50
2019-03-15T00:06:52.069Z,4.50
2019-03-15T00:09:23.139Z,4.50
2019-03-15T00:11:53.618Z,4.50
2019-03-15T00:14:24.108Z,4.50
2019-03-15T00:16:54.729Z,4.40
2019-03-15T00:19:25.259Z,4.40
2019-03-15T00:21:55.795Z,4.30
2019-03-15T00:24:26.301Z,4.30
2019-03-15T00:26:56.760Z,4.30
2019-03-15T00:29:27.196Z,4.40
2019-03-15T00:31:57.672Z,4.30
2019-03-15T00:34:28.127Z,4.30
2019-03-15T00:36:58.557Z,4.30
2019-03-15T00:39:29.079Z,4.30
2019-03-15T00:41:59.646Z,4.30
2019-03-15T00:44:30.192Z,4.30
2019-03-15T00:47:00.754Z,4.30
2019-03-15T00:49:31.281Z,4.30
2019-03-15T00:52:01.857Z,4.30
2019-03-15T00:54:32.305Z,4.40
2019-03-15T00:57:02.802Z,4.30
2019-03-15T00:59:33.405Z,4.40
2019-03-15T01:02:03.900Z,4.40
2019-03-15T01:04:34.330Z,4.40
2019-03-15T01:07:04.817Z,4.30
2019-03-15T01:09:35.277Z,4.30
2019-03-15T01:12:05.841Z,4.30
2019-03-15T01:14:36.291Z,4.30
2019-03-15T01:17:06.766Z,4.30
2019-03-15T01:19:38.487Z,4.30
2019-03-15T01:22:09.149Z,4.30
2019-03-15T01:24:39.571Z,4.40
2019-03-15T01:27:10.079Z,4.40
2019-03-15T01:29:41.592Z,4.40
2019-03-15T01:32:12.140Z,4.40
2019-03-15T01:34:42.621Z,4.40
2019-03-15T01:37:13.111Z,4.40
2019-03-15T01:39:43.594Z,4.40
2019-03-15T01:42:14.361Z,4.40
2019-03-15T01:44:44.925Z,4.40
2019-03-15T01:47:16.960Z,4.40
2019-03-15T01:49:47.436Z,4.40
2019-03-15T01:52:17.948Z,4.50
2019-03-15T01:54:48.485Z,4.40
2019-03-15T01:57:18.982Z,4.40
2019-03-15T01:59:49.575Z,4.50
2019-03-15T02:02:20.063Z,4.50
2019-03-15T02:04:50.525Z,4.50
2019-03-15T02:07:21.022Z,4.50
2019-03-15T02:09:51.495Z,4.60
2019-03-15T02:12:22.042Z,4.60
2019-03-15T02:14:53.472Z,4.60
2019-03-15T02:17:25.223Z,4.60
2019-03-15T02:19:55.734Z,4.70
2019-03-15T02:22:26.222Z,4.70
2019-03-15T02:24:56.678Z,4.80
2019-03-15T02:27:27.107Z,4.80
2019-03-15T02:29:57.638Z,4.80
2019-03-15T02:32:28.146Z,4.90
2019-03-15T02:34:58.605Z,4.90
2019-03-15T02:37:29.083Z,4.90
2019-03-15T02:39:59.585Z,4.90
2019-03-15T02:42:30.097Z,4.90
2019-03-15T02:45:00.614Z,4.90
2019-03-15T02:47:32.150Z,4.90
2019-03-15T02:50:02.637Z,4.90
2019-03-15T02:52:33.204Z,4.90
2019-03-15T02:55:04.330Z,5.00
2019-03-15T02:57:35.579Z,5.00
2019-03-15T03:00:07.208Z,5.00
2019-03-15T03:02:37.746Z,5.00
2019-03-15T03:05:09.630Z,5.00
2019-03-15T03:07:41.109Z,5.00
2019-03-15T03:10:11.707Z,5.00
2019-03-15T03:12:42.168Z,5.00
2019-03-15T03:15:12.674Z,5.00
2019-03-15T03:17:43.166Z,5.00
2019-03-15T03:20:14.859Z,5.00
2019-03-15T03:22:45.385Z,5.00
2019-03-15T03:25:17.251Z,5.00
2019-03-15T03:27:48.109Z,5.00
2019-03-15T03:30:18.554Z,5.00
2019-03-15T03:32:49.541Z,4.90
2019-03-15T03:35:19.981Z,4.90
2019-03-15T03:37:50.496Z,4.90
2019-03-15T03:40:21.339Z,4.90
2019-03-15T03:42:51.906Z,5.00
2019-03-15T03:45:23.526Z,5.00
2019-03-15T03:47:54.223Z,5.10
2019-03-15T03:50:25.015Z,5.10
2019-03-15T03:52:55.547Z,5.10
2019-03-15T03:55:26.147Z,5.10
2019-03-15T03:57:56.940Z,5.10
2019-03-15T04:00:27.536Z,5.10
2019-03-15T04:02:57.930Z,5.10
2019-03-15T04:05:29.501Z,5.20
2019-03-15T04:07:59.945Z,5.20
2019-03-15T04:10:30.403Z,5.20
2019-03-15T04:13:00.975Z,5.20
2019-03-15T04:15:31.425Z,5.20
2019-03-15T04:18:01.956Z,5.30
2019-03-15T04:20:32.408Z,5.40
2019-03-15T04:23:02.877Z,5.40
2019-03-15T04:25:33.316Z,5.40
2019-03-15T04:28:03.807Z,5.40
2019-03-15T04:30:34.339Z,5.40
2019-03-15T04:33:04.851Z,5.40
2019-03-15T04:35:35.285Z,5.30
2019-03-15T04:38:05.763Z,5.30
2019-03-15T04:40:36.268Z,5.30
2019-03-15T04:43:06.687Z,5.20
2019-03-15T04:45:37.272Z,5.20
2019-03-15T04:48:07.745Z,5.20
2019-03-15T04:50:38.286Z,5.10
2019-03-15T04:53:08.709Z,5.10
2019-03-15T04:55:39.127Z,5.10
2019-03-15T04:58:09.598Z,5.20
2019-03-15T05:00:40.111Z,5.10
2019-03-15T05:03:10.598Z,5.00
2019-03-15T05:05:41.034Z,5.00
2019-03-15T05:08:11.557Z,4.90
2019-03-15T05:10:45.608Z,4.90
2019-03-15T05:13:15.726Z,4.80
2019-03-15T05:15:47.072Z,4.80
2019-03-15T05:18:17.589Z,4.90
2019-03-15T05:20:48.139Z,4.90
2019-03-15T05:23:18.607Z,4.90
2019-03-15T05:25:49.146Z,4.90
2019-03-15T05:28:20.626Z,5.00
2019-03-15T05:30:51.412Z,5.00
2019-03-15T05:33:22.006Z,5.10
2019-03-15T05:35:54.036Z,5.10
2019-03-15T05:38:24.555Z,5.10
2019-03-15T05:40:55.206Z,5.20
2019-03-15T05:43:26.763Z,5.20
2019-03-15T05:45:57.363Z,5.20
2019-03-15T05:48:29.378Z,5.30
2019-03-15T05:50:59.954Z,5.40
2019-03-15T05:53:30.873Z,5.50
2019-03-15T05:56:01.399Z,5.70
2019-03-15T05:58:32.094Z,5.70
2019-03-15T06:01:02.591Z,5.60
2019-03-15T06:03:33.077Z,5.60
2019-03-15T06:06:03.594Z,5.70
2019-03-15T06:08:34.426Z,5.60
2019-03-15T06:11:04.927Z,5.70
2019-03-15T06:13:35.609Z,5.80
2019-03-15T06:16:07.571Z,5.90
2019-03-15T06:18:38.137Z,5.90
2019-03-15T06:21:09.655Z,5.90
2019-03-15T06:23:40.173Z,5.90
2019-03-15T06:26:11.269Z,5.90
2019-03-15T06:28:41.813Z,5.90
2019-03-15T06:31:12.387Z,5.90
2019-03-15T06:33:42.920Z,6.00
2019-03-15T06:36:13.533Z,6.00
2019-03-15T06:38:43.986Z,6.00
2019-03-15T06:41:14.661Z,6.10
2019-03-15T06:43:45.223Z,6.20
2019-03-15T06:46:15.876Z,6.30
2019-03-15T06:48:47.718Z,6.50
2019-03-15T06:51:19.086Z,6.60
2019-03-15T06:53:51.997Z,6.60
2019-03-15T06:56:22.430Z,6.70
2019-03-15T06:58:54.989Z,6.70
2019-03-15T07:01:25.523Z,6.60
2019-03-15T07:03:56.097Z,6.80
2019-03-15T07:06:26.679Z,6.80
2019-03-15T07:08:58.995Z,6.90
2019-03-15T07:11:33.825Z,6.80
2019-03-15T07:14:04.845Z,6.90
2019-03-15T07:16:38.020Z,6.90
2019-03-15T07:19:07.577Z,6.80
2019-03-15T07:21:38.143Z,6.90
2019-03-15T07:24:08.715Z,6.90
2019-03-15T07:26:39.705Z,7.00
2019-03-15T07:29:10.286Z,7.20
2019-03-15T07:31:51.633Z,7.20
2019-03-15T07:34:23.029Z,7.30
2019-03-15T07:36:56.409Z,7.30
2019-03-15T07:39:27.258Z,7.40
2019-03-15T07:42:00.301Z,7.60
2019-03-15T07:44:31.508Z,7.70
2019-03-15T07:47:04.077Z,7.50
2019-03-15T07:49:34.325Z,7.60
2019-03-15T07:52:05.058Z,7.80
2019-03-15T07:54:38.544Z,7.80
2019-03-15T07:57:10.342Z,7.90
2019-03-15T07:59:41.447Z,7.90
2019-03-15T08:02:12.021Z,7.80
2019-03-15T08:04:43.108Z,7.80
2019-03-15T08:07:13.636Z,7.80
2019-03-15T08:09:50.911Z,7.90
2019-03-15T08:12:22.222Z,8.00
2019-03-15T08:14:53.920Z,8.40
2019-03-15T08:17:27.244Z,8.60
2019-03-15T08:19:58.006Z,8.70
2019-03-15T08:22:31.585Z,8.80
2019-03-15T08:25:02.243Z,8.70
2019-03-15T08:27:33.998Z,8.70
2019-03-15T08:30:05.077Z,8.60
2019-03-15T08:32:35.681Z,8.50
2019-03-15T08:35:07.299Z,8.40
2019-03-15T08:37:38.047Z,8.40
2019-03-15T08:40:09.338Z,8.30
2019-03-15T08:42:40.096Z,8.30
2019-03-15T08:45:12.838Z,8.20
2019-03-15T08:47:44.578Z,8.30
2019-03-15T08:50:15.731Z,8.30
2019-03-15T08:52:46.624Z,8.30
2019-03-15T08:55:17.311Z,8.30
2019-03-15T08:57:47.982Z,8.30
2019-03-15T09:00:18.734Z,8.40
2019-03-15T09:02:49.407Z,8.40
2019-03-15T09:05:20.129Z,8.50
2019-03-15T09:07:51.114Z,8.50
2019-03-15T09:10:23.642Z,8.50
2019-03-15T09:12:53.868Z,8.60
2019-03-15T09:15:24.358Z,8.60
2019-03-15T09:17:54.910Z,8.60
2019-03-15T09:20:30.326Z,8.50
2019-03-15T09:22:58.866Z,8.60
2019-03-15T09:25:29.494Z,8.70
2019-03-15T09:28:00.059Z,8.70
2019-03-15T09:30:30.706Z,8.70
2019-03-15T09:33:03.137Z,8.70
2019-03-15T09:35:33.574Z,8.90
2019-03-15T09:38:04.090Z,9.00
2019-03-15T09:40:34.771Z,9.30
2019-03-15T09:43:05.411Z,9.50
2019-03-15T09:45:36.052Z,9.60
2019-03-15T09:48:06.674Z,9.70
2019-03-15T09:50:50.494Z,9.60
2019-03-15T09:53:09.684Z,9.40
2019-03-15T09:55:40.506Z,9.70
2019-03-15T09:58:10.989Z,10.20
2019-03-15T10:00:41.593Z,10.30
2019-03-15T10:03:22.209Z,10.30
2019-03-15T10:05:44.494Z,10.10
2019-03-15T10:08:15.031Z,10.00
2019-03-15T10:10:48.689Z,9.90
2019-03-15T10:13:17.873Z,10.00
2019-03-15T10:15:48.644Z,10.00
2019-03-15T10:18:19.554Z,9.90
2019-03-15T10:20:50.306Z,10.00
2019-03-15T10:23:20.892Z,10.00
2019-03-15T10:25:51.511Z,10.20
2019-03-15T10:28:22.553Z,10.20
2019-03-15T10:30:53.230Z,10.10
2019-03-15T10:33:24.022Z,10.00
2019-03-15T10:35:54.892Z,10.00
2019-03-15T10:38:25.682Z,10.10
2019-03-15T10:40:56.287Z,10.10
2019-03-15T10:43:27.332Z,10.00
2019-03-15T10:45:58.272Z,10.00
2019-03-15T10:48:28.778Z,9.80
2019-03-15T10:50:59.337Z,9.80
2019-03-15T10:53:29.857Z,9.90
2019-03-15T10:56:00.791Z,9.80
2019-03-15T10:58:32.404Z,9.60
2019-03-15T11:01:02.981Z,9.70
2019-03-15T11:03:34.556Z,9.80
2019-03-15T11:06:05.863Z,9.90
2019-03-15T11:08:36.536Z,9.90
2019-03-15T11:11:07.172Z,9.90
2019-03-15T11:13:37.752Z,9.90
2019-03-15T11:16:08.329Z,9.90
2019-03-15T11:18:38.984Z,10.00
2019-03-15T11:21:09.602Z,10.00
2019-03-15T11:23:40.224Z,9.90
2019-03-15T11:26:13.802Z,10.10
2019-03-15T11:28:43.059Z,10.20
2019-03-15T11:31:13.521Z,10.30
2019-03-15T11:33:47.072Z,10.20
2019-03-15T11:36:16.468Z,10.30
2019-03-15T11:38:47.109Z,10.30
2019-03-15T11:41:17.569Z,10.40
2019-03-15T11:43:48.262Z,10.50
2019-03-15T11:46:18.992Z,10.90
2019-03-15T11:48:49.642Z,10.90
2019-03-15T11:51:20.377Z,11.20
2019-03-15T11:53:50.890Z,11.30
2019-03-15T11:56:26.950Z,11.10
2019-03-15T11:58:55.108Z,10.70
2019-03-15T12:01:25.516Z,10.80
2019-03-15T12:03:56.093Z,11.00
2019-03-15T12:06:26.703Z,11.30
2019-03-15T12:08:57.266Z,11.20
2019-03-15T12:11:28.093Z,11.20
2019-03-15T12:13:58.546Z,11.20
2019-03-15T12:16:29.029Z,10.90
2019-03-15T12:18:59.606Z,10.90
2019-03-15T12:21:30.074Z,11.00
2019-03-15T12:24:00.750Z,11.10
2019-03-15T12:26:40.347Z,11.10
2019-03-15T12:29:03.548Z,10.90
2019-03-15T12:31:35.385Z,10.60
2019-03-15T12:34:06.051Z,10.50
2019-03-15T12:36:36.553Z,10.30
2019-03-15T12:39:08.212Z,10.40
2019-03-15T12:41:38.809Z,10.70
2019-03-15T12:44:10.632Z,10.90
2019-03-15T12:46:42.434Z,11.10
2019-03-15T12:49:13.122Z,11.20
2019-03-15T12:51:43.954Z,11.30
2019-03-15T12:54:14.496Z,11.30
2019-03-15T12:56:53.562Z,11.00
2019-03-15T12:59:20.587Z,10.90
2019-03-15T13:01:51.077Z,10.90
2019-03-15T13:04:21.651Z,10.90
2019-03-15T13:06:52.106Z,10.90
2019-03-15T13:09:22.645Z,11.20
2019-03-15T13:11:53.284Z,11.30
2019-03-15T13:14:23.838Z,11.60
2019-03-15T13:16:54.306Z,11.60
2019-03-15T13:19:25.068Z,11.40
2019-03-15T13:21:55.783Z,11.30
2019-03-15T13:24:26.288Z,11.50
2019-03-15T13:27:06.954Z,11.80
2019-03-15T13:29:28.995Z,12.00
2019-03-15T13:31:59.703Z,12.00
2019-03-15T13:34:30.334Z,11.80
2019-03-15T13:37:00.970Z,11.90
2019-03-15T13:39:31.634Z,12.10
2019-03-15T13:42:02.162Z,12.10
2019-03-15T13:44:32.778Z,12.20
2019-03-15T13:47:03.372Z,12.10
2019-03-15T13:49:34.070Z,11.90
2019-03-15T13:52:04.664Z,11.80
2019-03-15T13:54:35.359Z,11.60
2019-03-15T13:57:05.952Z,11.40
2019-03-15T13:59:36.498Z,11.30
2019-03-15T14:02:07.747Z,11.40
2019-03-15T14:04:39.594Z,11.50
2019-03-15T14:07:10.222Z,11.40
2019-03-15T14:09:40.869Z,11.30
2019-03-15T14:12:12.520Z,11.20
2019-03-15T14:14:43.079Z,11.20
2019-03-15T14:17:13.726Z,11.20
2019-03-15T14:19:44.178Z,11.20
2019-03-15T14:22:14.735Z,11.20
2019-03-15T14:24:45.202Z,11.20
2019-03-15T14:27:15.696Z,11.30
2019-03-15T14:29:46.492Z,11.40
2019-03-15T14:32:18.432Z,11.60
2019-03-15T14:34:49.039Z,11.70
2019-03-15T14:37:19.745Z,11.90
2019-03-15T14:39:50.429Z,11.80
2019-03-15T14:42:21.102Z,11.70
2019-03-15T14:44:51.883Z,11.60
2019-03-15T14:47:22.342Z,11.40
2019-03-15T14:49:52.960Z,11.10
2019-03-15T14:52:23.623Z,10.80
2019-03-15T14:54:54.136Z,10.60
2019-03-15T14:57:24.976Z,10.50
2019-03-15T14:59:55.642Z,10.40
2019-03-15T15:02:26.196Z,10.40
2019-03-15T15:04:56.743Z,10.50
2019-03-15T15:07:27.276Z,10.50
2019-03-15T15:09:57.976Z,10.50
2019-03-15T15:12:28.607Z,10.40
2019-03-15T15:14:59.241Z,10.30
2019-03-15T15:17:29.894Z,10.30
2019-03-15T15:20:00.619Z,10.30
2019-03-15T15:22:32.306Z,10.30
2019-03-15T15:25:02.950Z,10.20
2019-03-15T15:27:33.509Z,10.20
2019-03-15T15:30:04.225Z,10.20
2019-03-15T15:32:34.845Z,10.20
2019-03-15T15:35:06.126Z,10.10
2019-03-15T15:37:36.838Z,10.00
2019-03-15T15:40:09.045Z,9.90
2019-03-15T15:42:39.539Z,9.90
2019-03-15T15:45:10.291Z,9.90
2019-03-15T15:47:40.903Z,9.90
2019-03-15T15:50:11.665Z,10.00
2019-03-15T15:52:43.820Z,10.00
2019-03-15T15:55:14.708Z,10.00
2019-03-15T15:57:45.535Z,9.90
2019-03-15T16:00:16.328Z,9.90
2019-03-15T16:02:48.034Z,9.80
2019-03-15T16:05:18.644Z,9.80
2019-03-15T16:07:49.279Z,9.70
2019-03-15T16:10:19.872Z,9.70
2019-03-15T16:12:50.573Z,9.60
2019-03-15T16:15:21.334Z,9.60
2019-03-15T16:17:51.986Z,9.50
2019-03-15T16:20:22.655Z,9.50
2019-03-15T16:22:54.812Z,9.40
2019-03-15T16:25:25.413Z,9.40
2019-03-15T16:27:55.905Z,9.30
2019-03-15T16:30:28.646Z,9.30
2019-03-15T16:32:59.226Z,9.20
2019-03-15T16:35:29.828Z,9.20
2019-03-15T16:38:00.571Z,9.20
2019-03-15T16:40:31.249Z,9.10
2019-03-15T16:43:01.919Z,9.10
2019-03-15T16:45:32.733Z,9.00
2019-03-15T16:48:03.695Z,9.00
2019-03-15T16:50:34.367Z,8.90
2019-03-15T16:53:04.847Z,8.90
2019-03-15T16:55:35.605Z,8.90
2019-03-15T16:58:06.062Z,8.80
2019-03-15T17:00:36.728Z,8.70
2019-03-15T17:03:07.379Z,8.70
2019-03-15T17:05:38.063Z,8.70
2019-03-15T17:08:08.498Z,8.70
2019-03-15T17:10:39.190Z,8.70
2019-03-15T17:13:09.792Z,8.60
2019-03-15T17:15:40.375Z,8.60
2019-03-15T17:18:10.915Z,8.60
2019-03-15T17:20:41.448Z,8.60
2019-03-15T17:23:11.963Z,8.60
2019-03-15T17:25:42.390Z,8.50
2019-03-15T17:28:12.909Z,8.50
2019-03-15T17:30:43.591Z,8.50
2019-03-15T17:33:14.162Z,8.40
2019-03-15T17:35:44.603Z,8.40
2019-03-15T17:38:15.428Z,8.40
2019-03-15T17:40:45.992Z,8.40
2019-03-15T17:43:16.617Z,8.40
2019-03-15T17:45:47.241Z,8.40
2019-03-15T17:48:17.799Z,8.50
2019-03-15T17:50:48.265Z,8.40
2019-03-15T17:53:19.008Z,8.40
2019-03-15T17:55:49.588Z,8.40
2019-03-15T17:58:20.324Z,8.40
2019-03-15T18:00:50.778Z,8.40
2019-03-15T18:03:23.871Z,8.40
2019-03-15T18:05:53.589Z,8.40
2019-03-15T18:08:24.171Z,8.40
2019-03-15T18:10:54.985Z,8.40
2019-03-15T18:13:25.495Z,8.40
2019-03-15T18:15:56.027Z,8.40
2019-03-15T18:18:27.994Z,8.50
2019-03-15T18:20:58.616Z,8.50
2019-03-15T18:23:29.298Z,8.50
2019-03-15T18:25:59.932Z,8.50
2019-03-15T18:28:30.521Z,8.50
2019-03-15T18:31:00.994Z,8.50
2019-03-15T18:33:31.678Z,8.40
2019-03-15T18:36:02.369Z,8.40
2019-03-15T18:38:32.960Z,8.40
2019-03-15T18:41:03.626Z,8.30
2019-03-15T18:43:34.351Z,8.20
2019-03-15T18:46:04.864Z,8.10
2019-03-15T18:48:35.397Z,8.10
2019-03-15T18:51:06.010Z,8.00
2019-03-15T18:53:36.584Z,8.00
2019-03-15T18:56:07.266Z,8.00
2019-03-15T18:58:37.895Z,8.00
2019-03-15T19:01:08.437Z,8.00
2019-03-15T19:03:39.157Z,8.00
2019-03-15T19:06:09.891Z,8.00
2019-03-15T19:08:40.868Z,7.90
2019-03-15T19:11:11.447Z,7.90
2019-03-15T19:13:42.020Z,7.90
2019-03-15T19:16:20.049Z,7.80
2019-03-15T19:18:45.089Z,7.80
2019-03-15T19:21:15.621Z,7.70
2019-03-15T19:23:47.423Z,7.60
2019-03-15T19:26:18.216Z,7.70
2019-03-15T19:28:48.783Z,7.60
2019-03-15T19:31:19.353Z,7.60
2019-03-15T19:33:49.893Z,7.60
2019-03-15T19:36:20.499Z,7.50
2019-03-15T19:38:51.087Z,7.50
2019-03-15T19:41:21.569Z,7.50
2019-03-15T19:43:52.131Z,7.50
2019-03-15T19:46:22.661Z,7.50
2019-03-15T19:48:53.164Z,7.50
2019-03-15T19:51:23.752Z,7.50
2019-03-15T19:53:54.551Z,7.50
2019-03-15T19:56:25.082Z,7.50
2019-03-15T19:58:56.099Z,7.50
2019-03-15T20:01:28.972Z,7.50
2019-03-15T20:03:58.930Z,7.50
2019-03-15T20:06:29.565Z,7.50
2019-03-15T20:09:01.324Z,7.50
2019-03-15T20:11:33.313Z,7.40
2019-03-15T20:14:04.263Z,7.40
2019-03-15T20:16:34.902Z,7.30
2019-03-15T20:19:05.522Z,7.30
2019-03-15T20:21:36.106Z,7.30
2019-03-15T20:24:06.848Z,7.40
2019-03-15T20:26:37.754Z,7.50
2019-03-15T20:29:08.547Z,7.70
2019-03-15T20:31:39.118Z,7.80
2019-03-15T20:34:09.609Z,7.90
2019-03-15T20:36:40.254Z,8.00
2019-03-15T20:39:10.810Z,8.00
2019-03-15T20:41:41.417Z,8.00
2019-03-15T20:44:12.111Z,8.00
2019-03-15T20:46:42.770Z,7.90
2019-03-15T20:49:13.350Z,7.90
2019-03-15T20:51:44.015Z,7.80
2019-03-15T20:54:14.640Z,7.70
2019-03-15T20:56:45.358Z,7.60
2019-03-15T20:59:15.914Z,7.60
2019-03-15T21:01:48.979Z,7.60
2019-03-15T21:04:18.815Z,7.60
2019-03-15T21:06:49.469Z,7.50
2019-03-15T21:09:20.034Z,7.50
2019-03-15T21:11:51.990Z,7.50
2019-03-15T21:14:22.610Z,7.50
2019-03-15T21:16:53.390Z,7.50
2019-03-15T21:19:23.991Z,7.40
2019-03-15T21:21:56.287Z,7.30
2019-03-15T21:24:26.637Z,7.30
2019-03-15T21:26:57.091Z,7.30
2019-03-15T21:29:27.606Z,7.30
2019-03-15T21:31:58.159Z,7.30
2019-03-15T21:34:28.801Z,7.30
2019-03-15T21:36:59.352Z,7.30
2019-03-15T21:39:29.878Z,7.30
2019-03-15T21:42:00.363Z,7.40
2019-03-15T21:44:30.926Z,7.40
2019-03-15T21:47:01.386Z,7.30
2019-03-15T21:49:35.102Z,7.30
2019-03-15T21:52:04.074Z,7.40
2019-03-15T21:54:34.632Z,7.60
2019-03-15T21:57:05.082Z,7.80
2019-03-15T21:59:38.901Z,7.80
2019-03-15T22:02:07.701Z,7.70
2019-03-15T22:04:38.245Z,7.70
2019-03-15T22:07:08.771Z,7.70
2019-03-15T22:09:39.450Z,7.70
2019-03-15T22:12:09.939Z,7.70
2019-03-15T22:14:40.564Z,7.70
2019-03-15T22:17:11.086Z,7.80
2019-03-15T22:19:41.538Z,7.80
2019-03-15T22:22:12.245Z,7.80
2019-03-15T22:24:42.718Z,7.80
2019-03-15T22:27:13.218Z,7.80
2019-03-15T22:29:53.538Z,7.80
2019-03-15T22:32:15.862Z,7.80
2019-03-15T22:34:46.365Z,7.80
2019-03-15T22:37:16.899Z,7.80
2019-03-15T22:39:47.345Z,7.80
2019-03-15T22:42:17.898Z,7.80
2019-03-15T22:44:48.377Z,7.80
2019-03-15T22:47:18.946Z,7.80
2019-03-15T22:49:49.456Z,7.80
2019-03-15T22:52:20.120Z,7.80
2019-03-15T22:54:50.727Z,7.80
2019-03-15T22:57:21.218Z,7.80
2019-03-15T22:59:51.676Z,7.80
2019-03-15T23:02:22.202Z,7.70
2019-03-15T23:04:52.809Z,7.70
2019-03-15T23:07:23.342Z,7.70
2019-03-15T23:09:53.917Z,7.80
2019-03-15T23:12:24.413Z,7.80
2019-03-15T23:14:54.934Z,7.90
2019-03-15T23:17:25.635Z,8.00
2019-03-15T23:19:56.200Z,7.80
2019-03-15T23:22:26.773Z,7.80
2019-03-15T23:24:57.340Z,7.80
2019-03-15T23:27:28.047Z,7.80
2019-03-15T23:29:58.706Z,7.80
2019-03-15T23:32:29.328Z,7.80
2019-03-15T23:34:59.872Z,7.70
2019-03-15T23:37:30.542Z,7.80
2019-03-15T23:40:03.588Z,7.80
2019-03-15T23:42:34.174Z,7.80
2019-03-15T23:45:04.875Z,7.90
2019-03-15T23:47:35.572Z,7.90
2019-03-15T23:50:06.430Z,7.90
2019-03-15T23:52:36.908Z,7.90
2019-03-15T23:55:07.838Z,8.00
2019-03-15T23:57:39.467Z,7.90
